Sunday, October 22, 2017, 8:24 PM EDT
Back to Local

KRDG, Reading Regional Airport

Location: Reading, PA, United States Lat: 40.367
Local Time: 8:24 PM EDT ( 0:24 GMT) Lon: -75.967
Time Zone: US/Eastern Elev: 344 ft

Show me the last for .
Show Coded

Time T Td Feel RH Dir Speed Gust Alt SLP Vis Weather Sky Remarks
2017-10-22 19:54 62 45 - 53 - Calm - 30.32 30.33 10 CLR 6-hr Min Temp (8pm): 62.1°F
6-hr Max Temp (8pm): 75.9°F
2017-10-22 18:54 65 44 - 46 170° 3 - 30.32 30.33 10 CLR None
2017-10-22 17:54 69 43 - 38 160° 9 - 30.32 30.33 10 CLR None
2017-10-22 16:54 72 46 - 39 150° 9 - 30.31 30.32 10 CLR None
2017-10-22 15:54 74 46 - 37 160° 12 - 30.32 30.33 10 CLR None
2017-10-22 14:54 75 48 - 38 130° 7 - 30.32 30.34 10 CLR None
2017-10-22 13:54 76 48 - 37 200° 9 - 30.34 30.36 10 CLR 6-hr Min Temp (2pm): 44.1°F
6-hr Max Temp (2pm): 75.9°F
2017-10-22 12:54 73 51 76 46 - - - 30.37 30.38 10 CLR None
2017-10-22 11:54 68 53 - 58 - Calm - 30.38 30.39 10 CLR None
2017-10-22 10:54 61 54 - 77 - Calm - 30.39 30.40 9 CLR None
2017-10-22 09:54 56 51 - 83 - Calm - 30.40 30.42 5 HZ CLR None
2017-10-22 08:54 48 48 - 100 - Calm - 30.41 30.42 10 CLR None
2017-10-22 07:54 44 44 - 100 - Calm - 30.40 30.41 10 CLR 6-hr Min Temp (8am): 43.0°F
6-hr Max Temp (8am): 50.0°F
2017-10-22 06:54 44 44 - 100 - Calm - 30.39 30.40 10 CLR None
2017-10-22 05:54 45 45 - 100 - Calm - 30.38 30.39 10 CLR None
2017-10-22 04:54 44 44 - 100 - Calm - 30.36 30.37 10 CLR None
2017-10-22 03:54 46 46 - 100 - Calm - 30.35 30.36 10 CLR None
2017-10-22 02:54 47 47 - 100 - Calm - 30.35 30.37 10 CLR None
2017-10-22 01:54 50 49 - 96 - Calm - 30.35 30.36 10 CLR 6-hr Min Temp (2am): 48.9°F
6-hr Max Temp (2am): 60.1°F
2017-10-22 00:54 49 48 - 96 - Calm - 30.36 30.37 10 CLR 24-hr Min Temp (1am): 42.1°F
24-hr Max Temp (1am): 77.0°F
2017-10-21 23:54 52 49 - 89 - Calm - 30.36 30.37 10 CLR None
2017-10-21 22:54 52 51 - 96 - Calm - 30.36 30.37 10 CLR None
2017-10-21 21:54 54 51 - 89 340° 3 - 30.35 30.37 10 CLR None
2017-10-21 20:54 56 52 - 86 - Calm - 30.35 30.37 10 CLR None

Support USWX by starting your Amazon purchase here.